sensor_id;sensor_type;location;lat;lon;timestamp;pressure;altitude;pressure_sealevel;temperature;humidity
26839;BME280;40088;51.214;6.786;2023-05-24T00:09:59;102081.25;;;18.71;55.69
26839;BME280;40088;51.214;6.786;2023-05-24T00:19:59;102084.19;;;18.70;55.67
26839;BME280;40088;51.214;6.786;2023-05-24T00:29:59;102075.75;;;18.71;55.41
26839;BME280;40088;51.214;6.786;2023-05-24T00:40:00;102069.50;;;18.69;55.54
26839;BME280;40088;51.214;6.786;2023-05-24T00:50:01;102075.91;;;18.70;55.13
26839;BME280;40088;51.214;6.786;2023-05-24T01:00:03;102075.03;;;18.69;55.21
26839;BME280;40088;51.214;6.786;2023-05-24T01:20:20;102056.75;;;18.68;55.27
26839;BME280;40088;51.214;6.786;2023-05-24T01:30:21;102065.03;;;18.68;55.08
26839;BME280;40088;51.214;6.786;2023-05-24T01:40:22;102062.28;;;18.68;55.33
26839;BME280;40088;51.214;6.786;2023-05-24T01:50:36;102050.38;;;18.68;55.09
26839;BME280;40088;51.214;6.786;2023-05-24T02:00:37;102042.94;;;18.68;55.00
26839;BME280;40088;51.214;6.786;2023-05-24T02:10:39;102045.72;;;18.68;55.04
26839;BME280;40088;51.214;6.786;2023-05-24T02:20:40;102035.69;;;18.67;55.17
26839;BME280;40088;51.214;6.786;2023-05-24T02:30:40;102032.75;;;18.69;55.12
26839;BME280;40088;51.214;6.786;2023-05-24T02:40:43;102035.69;;;18.67;54.85
26839;BME280;40088;51.214;6.786;2023-05-24T02:50:43;102037.44;;;18.68;54.99
26839;BME280;40088;51.214;6.786;2023-05-24T03:00:44;102037.44;;;18.68;55.06
26839;BME280;40088;51.214;6.786;2023-05-24T03:10:44;102041.19;;;18.67;54.86
26839;BME280;40088;51.214;6.786;2023-05-24T03:20:45;102035.69;;;18.67;54.85
26839;BME280;40088;51.214;6.786;2023-05-24T03:30:45;102039.31;;;18.68;54.78
26839;BME280;40088;51.214;6.786;2023-05-24T03:40:45;102038.44;;;18.67;55.06
26839;BME280;40088;51.214;6.786;2023-05-24T03:50:46;102051.22;;;18.68;55.23
26839;BME280;40088;51.214;6.786;2023-05-24T04:00:46;102041.03;;;18.69;55.20
26839;BME280;40088;51.214;6.786;2023-05-24T04:10:47;102045.72;;;18.68;55.03
26839;BME280;40088;51.214;6.786;2023-05-24T04:20:47;102055.91;;;18.68;54.96
26839;BME280;40088;51.214;6.786;2023-05-24T04:30:49;102059.66;;;18.67;54.87
26839;BME280;40088;51.214;6.786;2023-05-24T04:40:50;102063.28;;;18.67;55.36
26839;BME280;40088;51.214;6.786;2023-05-24T04:50:52;102065.03;;;18.68;55.01
26839;BME280;40088;51.214;6.786;2023-05-24T05:00:52;102074.31;;;18.67;55.09
26839;BME280;40088;51.214;6.786;2023-05-24T05:10:53;102092.66;;;18.68;55.03
26839;BME280;40088;51.214;6.786;2023-05-24T05:20:53;102098.16;;;18.68;54.92
26839;BME280;40088;51.214;6.786;2023-05-24T05:30:53;102105.59;;;18.68;54.99
26839;BME280;40088;51.214;6.786;2023-05-24T05:40:55;102107.47;;;18.67;54.88
26839;BME280;40088;51.214;6.786;2023-05-24T05:50:56;102091.78;;;18.68;55.19
26839;BME280;40088;51.214;6.786;2023-05-24T06:00:56;102093.66;;;18.67;55.21
26839;BME280;40088;51.214;6.786;2023-05-24T06:10:57;102090.75;;;18.69;55.03
26839;BME280;40088;51.214;6.786;2023-05-24T06:20:58;102081.59;;;18.68;55.15
26839;BME280;40088;51.214;6.786;2023-05-24T06:30:58;102098.16;;;18.68;55.25
26839;BME280;40088;51.214;6.786;2023-05-24T06:40:58;102104.56;;;18.69;55.37
26839;BME280;40088;51.214;6.786;2023-05-24T06:50:59;102111.97;;;18.68;55.26
26839;BME280;40088;51.214;6.786;2023-05-24T07:00:59;102112.97;;;18.67;55.34
26839;BME280;40088;51.214;6.786;2023-05-24T07:11:00;102112.84;;;18.69;55.33
26839;BME280;40088;51.214;6.786;2023-05-24T07:21:01;102119.41;;;18.68;55.28
26839;BME280;40088;51.214;6.786;2023-05-24T07:31:01;102123.03;;;18.68;55.29
26839;BME280;40088;51.214;6.786;2023-05-24T07:41:02;102120.25;;;18.68;55.53
26839;BME280;40088;51.214;6.786;2023-05-24T07:51:03;102121.97;;;18.69;55.56
26839;BME280;40088;51.214;6.786;2023-05-24T08:01:03;102109.22;;;18.68;55.46
26839;BME280;40088;51.214;6.786;2023-05-24T08:11:04;102110.06;;;18.69;55.56
26839;BME280;40088;51.214;6.786;2023-05-24T08:21:05;102118.34;;;18.69;55.38
26839;BME280;40088;51.214;6.786;2023-05-24T08:31:05;102116.63;;;18.68;55.24
26839;BME280;40088;51.214;6.786;2023-05-24T08:41:06;102115.59;;;18.69;55.36
26839;BME280;40088;51.214;6.786;2023-05-24T08:51:07;102112.84;;;18.69;55.54
26839;BME280;40088;51.214;6.786;2023-05-24T09:01:09;102102.84;;;18.68;55.29
26839;BME280;40088;51.214;6.786;2023-05-24T09:11:10;102097.13;;;18.69;55.28
26839;BME280;40088;51.214;6.786;2023-05-24T09:21:11;102095.41;;;18.68;55.41
26839;BME280;40088;51.214;6.786;2023-05-24T09:31:12;102088.84;;;18.69;55.48
26839;BME280;40088;51.214;6.786;2023-05-24T09:41:12;102090.75;;;18.69;55.25
26839;BME280;40088;51.214;6.786;2023-05-24T09:51:13;102087.97;;;18.69;55.56
26839;BME280;40088;51.214;6.786;2023-05-24T10:01:14;102083.31;;;18.69;55.51
26839;BME280;40088;51.214;6.786;2023-05-24T10:11:17;102064.84;;;18.70;55.46
26839;BME280;40088;51.214;6.786;2023-05-24T10:21:19;102075.22;;;18.68;55.37
26839;BME280;40088;51.214;6.786;2023-05-24T10:31:24;102086.09;;;18.69;55.49
26839;BME280;40088;51.214;6.786;2023-05-24T10:41:27;102076.75;;;18.70;55.38
26839;BME280;40088;51.214;6.786;2023-05-24T10:51:35;102058.47;;;18.69;55.21
26839;BME280;40088;51.214;6.786;2023-05-24T11:01:37;102055.72;;;18.69;55.25
26839;BME280;40088;51.214;6.786;2023-05-24T11:11:37;102062.09;;;18.70;55.44
26839;BME280;40088;51.214;6.786;2023-05-24T11:21:39;102055.72;;;18.69;55.42
26839;BME280;40088;51.214;6.786;2023-05-24T11:31:50;102061.22;;;18.69;55.29
26839;BME280;40088;51.214;6.786;2023-05-24T11:41:52;102067.59;;;18.70;55.18
26839;BME280;40088;51.214;6.786;2023-05-24T11:51:54;102044.66;;;18.69;55.04
26839;BME280;40088;51.214;6.786;2023-05-24T12:01:57;102046.38;;;18.70;55.18
26839;BME280;40088;51.214;6.786;2023-05-24T12:11:59;102054.84;;;18.69;55.07
26839;BME280;40088;51.214;6.786;2023-05-24T12:22:05;102050.19;;;18.69;54.98
26839;BME280;40088;51.214;6.786;2023-05-24T12:32:06;102052.94;;;18.69;54.98
26839;BME280;40088;51.214;6.786;2023-05-24T12:42:11;102050.19;;;18.69;54.94
26839;BME280;40088;51.214;6.786;2023-05-24T12:52:12;102051.03;;;18.70;55.13
26839;BME280;40088;51.214;6.786;2023-05-24T13:02:12;102028.09;;;18.69;55.10
26839;BME280;40088;51.214;6.786;2023-05-24T13:12:12;102025.34;;;18.69;55.04
26839;BME280;40088;51.214;6.786;2023-05-24T13:22:13;102039.13;;;18.69;55.07
26839;BME280;40088;51.214;6.786;2023-05-24T13:32:13;102031.56;;;18.71;55.18
26839;BME280;40088;51.214;6.786;2023-05-24T13:42:13;102031.56;;;18.71;55.02
26839;BME280;40088;51.214;6.786;2023-05-24T13:52:14;102024.28;;;18.70;55.09
26839;BME280;40088;51.214;6.786;2023-05-24T14:02:14;102027.06;;;18.70;54.99
26839;BME280;40088;51.214;6.786;2023-05-24T14:12:15;102018.75;;;18.70;54.95
26839;BME280;40088;51.214;6.786;2023-05-24T14:22:16;102020.50;;;18.71;55.26
26839;BME280;40088;51.214;6.786;2023-05-24T14:32:16;102025.16;;;18.71;54.67
26839;BME280;40088;51.214;6.786;2023-05-24T14:42:17;102032.41;;;18.72;54.94
26839;BME280;40088;51.214;6.786;2023-05-24T14:52:17;102020.50;;;18.71;55.00
26839;BME280;40088;51.214;6.786;2023-05-24T15:02:17;102019.63;;;18.71;55.06
26839;BME280;40088;51.214;6.786;2023-05-24T15:12:18;102010.31;;;18.72;55.04
26839;BME280;40088;51.214;6.786;2023-05-24T15:22:18;102012.22;;;18.71;55.03
26839;BME280;40088;51.214;6.786;2023-05-24T15:32:19;102021.38;;;18.72;55.06
26839;BME280;40088;51.214;6.786;2023-05-24T15:42:19;102013.94;;;18.72;54.82
26839;BME280;40088;51.214;6.786;2023-05-24T15:52:20;102012.22;;;18.71;55.08
26839;BME280;40088;51.214;6.786;2023-05-24T16:02:20;102013.09;;;18.72;55.04
26839;BME280;40088;51.214;6.786;2023-05-24T16:12:21;102004.81;;;18.72;54.79
26839;BME280;40088;51.214;6.786;2023-05-24T16:22:21;102007.56;;;18.72;55.06
26839;BME280;40088;51.214;6.786;2023-05-24T16:32:22;102002.91;;;18.72;54.94
26839;BME280;40088;51.214;6.786;2023-05-24T16:42:23;102004.81;;;18.72;55.06
26839;BME280;40088;51.214;6.786;2023-05-24T16:52:23;101993.75;;;18.72;54.89
26839;BME280;40088;51.214;6.786;2023-05-24T17:02:23;102002.91;;;18.72;54.97
26839;BME280;40088;51.214;6.786;2023-05-24T17:12:24;102006.53;;;18.73;54.95
26839;BME280;40088;51.214;6.786;2023-05-24T17:22:24;102001.84;;;18.73;54.99
26839;BME280;40088;51.214;6.786;2023-05-24T17:32:25;102001.00;;;18.73;55.10
26839;BME280;40088;51.214;6.786;2023-05-24T17:42:25;102000.16;;;18.72;55.05
26839;BME280;40088;51.214;6.786;2023-05-24T17:52:25;102001.19;;;18.71;55.13
26839;BME280;40088;51.214;6.786;2023-05-24T18:02:26;101999.09;;;18.73;55.17
26839;BME280;40088;51.214;6.786;2023-05-24T18:12:26;102000.16;;;18.72;55.19
26839;BME280;40088;51.214;6.786;2023-05-24T18:22:27;101999.28;;;18.72;55.19
26839;BME280;40088;51.214;6.786;2023-05-24T18:32:27;102010.31;;;18.72;55.23
26839;BME280;40088;51.214;6.786;2023-05-24T18:42:27;102020.34;;;18.73;55.18
26839;BME280;40088;51.214;6.786;2023-05-24T18:52:28;102018.44;;;18.73;55.09
26839;BME280;40088;51.214;6.786;2023-05-24T19:02:28;102033.28;;;18.72;55.38
26839;BME280;40088;51.214;6.786;2023-05-24T19:12:28;102042.41;;;18.73;55.23
26839;BME280;40088;51.214;6.786;2023-05-24T19:22:29;102055.38;;;18.72;55.17
26839;BME280;40088;51.214;6.786;2023-05-24T19:32:29;102055.38;;;18.72;55.16
26839;BME280;40088;51.214;6.786;2023-05-24T19:42:30;102054.50;;;18.72;55.50
26839;BME280;40088;51.214;6.786;2023-05-24T19:52:30;102070.03;;;18.73;55.16
26839;BME280;40088;51.214;6.786;2023-05-24T20:02:30;102071.94;;;18.72;55.34
26839;BME280;40088;51.214;6.786;2023-05-24T20:12:31;102080.22;;;18.72;55.33
26839;BME280;40088;51.214;6.786;2023-05-24T20:22:33;102086.78;;;18.71;55.36
26839;BME280;40088;51.214;6.786;2023-05-24T20:32:33;102101.44;;;18.72;55.27
26839;BME280;40088;51.214;6.786;2023-05-24T20:42:33;102112.31;;;18.73;55.30
26839;BME280;40088;51.214;6.786;2023-05-24T20:52:34;102113.34;;;18.72;55.45
26839;BME280;40088;51.214;6.786;2023-05-24T21:02:35;102113.34;;;18.72;55.20
26839;BME280;40088;51.214;6.786;2023-05-24T21:12:36;102116.13;;;18.72;55.28
26839;BME280;40088;51.214;6.786;2023-05-24T21:22:36;102126.31;;;18.72;55.55
26839;BME280;40088;51.214;6.786;2023-05-24T21:32:36;102129.91;;;18.72;55.38
26839;BME280;40088;51.214;6.786;2023-05-24T21:42:37;102132.69;;;18.72;55.35
26839;BME280;40088;51.214;6.786;2023-05-24T21:52:37;102131.81;;;18.72;55.78
26839;BME280;40088;51.214;6.786;2023-05-24T22:02:38;102133.72;;;18.71;55.41
26839;BME280;40088;51.214;6.786;2023-05-24T22:12:38;102143.72;;;18.72;55.49
26839;BME280;40088;51.214;6.786;2023-05-24T22:22:38;102151.16;;;18.72;55.48
26839;BME280;40088;51.214;6.786;2023-05-24T22:32:52;102162.19;;;18.72;55.59
26839;BME280;40088;51.214;6.786;2023-05-24T22:42:52;102150.28;;;18.71;55.40
26839;BME280;40088;51.214;6.786;2023-05-24T22:52:53;102161.34;;;18.71;55.35
26839;BME280;40088;51.214;6.786;2023-05-24T23:02:55;102153.06;;;18.71;55.66
26839;BME280;40088;51.214;6.786;2023-05-24T23:12:55;102171.34;;;18.72;55.39
26839;BME280;40088;51.214;6.786;2023-05-24T23:22:57;102169.78;;;18.70;55.52
26839;BME280;40088;51.214;6.786;2023-05-24T23:33:01;102173.41;;;18.70;55.43
26839;BME280;40088;51.214;6.786;2023-05-24T23:43:02;102172.38;;;18.71;55.56
26839;BME280;40088;51.214;6.786;2023-05-24T23:53:03;102180.66;;;18.71;55.43
